BIEGBIIS

Guest
Details From BIEG - Egilsstadir
To BIIS - Isafjordur
Flight Number -
Tags generated
Created
Modified
Stats Distance 222 nm / 411 km
Max Altitude 26,500 ft / 8,077 m
Waypoints 6
Social Downloads 1
Likes 0
Share VATSIM

Download

Looking for another format? Having issues loading an existing format? Contact us
Advertisement - Login to hide

Notes

Basic altitude profile: - Ascent Rate: 2500ft/min - Ascent Speed: 250kts - Cruise Altitude: 35000ft - Cruise Speed: 420kts - Descent Rate: 1500ft/min - Descent Speed: 250kts Options: - Use NATs: yes - Use PACOTS: yes - Use low airways: yes - Use high airways: yes

Route

BIEG FELLI R2 HE BIIS

ID Type Via Altitude Latitude Longitude Leg Dist Tot Dist Heading (true) Name
O BIEG APT - 0 ft / 0 m 65.28283˚ -14.40206˚ - 0 nm - Egilsstadir
FELLI FIX - 7,000 ft / 2,134 m 65.35417˚ -15.17389˚ 19 nm 19 nm 283° / 282° -
TJORN FIX R2 (AWY-LO) 26,500 ft / 8,077 m 65.65694˚ -17.24389˚ 54 nm 74 nm 290° / 288° -
AKI VOR R2 (AWY-HI) 26,400 ft / 8,047 m 65.75981˚ -18.00411˚ 19 nm 94 nm 289° / 288° AKUREYRI VOR-DME
HE NDB R2 (AWY-HI) 18,400 ft / 5,608 m 65.75086˚ -19.51906˚ 37 nm 131 nm 270° / 268° HEGRANES NDB
O BIIS APT - 0 ft / 0 m 66.05810˚ -23.13520˚ 90 nm 222 nm 283° / 280° Isafjordur

Altitude Profile

Advertisement - Login to hide

Weather


0- 5 10 15 20 25 30 35+ Temperature / ° C

Clouds and Precipitation
Forecast for 2017-12-18 12:00 UTC. Updated 2 hours ago

Ground ~20,000 ft ~40,000 ft Winds

BIEG

Details ICAO BIEG (EGS)
Name Egilsstadir
Region Iceland
Timezone Atlantic/Reykjavik (UTC+0.0)
Stats Elevation 76 ft / 23 m (AMSL)
Location 65.282830° -14.402058°
Runways 1
Magnetic Variation 10.112° W

METAR

BIEG 181000Z 17010KT 9999 FEW040 SCT070 05/02 Q0995 R04/790349 RMK RWY SANDED

Decode

TAF

TAF BIEG 180759Z 1809/1909 20015KT 9999 FEW035 SCT055 TX10/1824Z TN03/1906Z BECMG 1812/1815 21020G30KT TEMPO 1818/1824 21030G45KT -RA BKN025

Decode

Departure Runways

ID Width Length Bearing (true) Bearing (mag) Surface Threshold Offset Overrun Length
04 148 ft / 45 m 6,569 ft / 2,002 m 25.32° 35.43° Asphalt 492 ft / 150 m 0 ft / 0 m
22 148 ft / 45 m 6,569 ft / 2,002 m 205.34° 215.45° Asphalt 0 ft / 0 m 197 ft / 60 m

BIIS

Details ICAO BIIS (IFJ)
Name Isafjordur
Region Iceland
Timezone Unknown (UTC+0.0)
Stats Elevation 7 ft / 2 m (AMSL)
Location 66.058100° -23.135201°
Runways 1
Magnetic Variation 15.278° W

METAR

BIIS 181000Z 23023G36KT 9999 SCT030 07/M01 Q0987 RMK 08 230 24G37

Decode

TAF

Not found

Destination Runways

ID Width Length Bearing (true) Bearing (mag) Surface Threshold Offset Overrun Length
08 139 ft / 42 m 4,598 ft / 1,401 m 61.84° 77.12° Asphalt 0 ft / 0 m 0 ft / 0 m
26 139 ft / 42 m 4,598 ft / 1,401 m 241.86° 257.14° Asphalt 0 ft / 0 m 0 ft / 0 m

Approach Navaids

Runway Type Ident Frequency Range Bearing (true) Bearing (mag) Slope Elevation
26 Localiser IOG 110.10 MHz 18 nm / 33 km 312.00° 327.28° - 8 ft / 2 m (AMSL)

Popular Alternatives